Time;durP1;ratioP1;P1;durP2;ratioP2;P2;SDS_P1;SDS_P2;PMS_P1;PMS_P2;Temp;Humidity;BMP_temperature;BMP_pressure;BME280_temperature;BME280_humidity;BME280_pressure;Samples;Min_cycle;Max_cycle;Signal;HPM_P1;HPM_P2
2022/05/13 00:01:57;;;;;;;32.17;6.50;;;12.50;85.60;;;;;;6159899;23;20028;-74
2022/05/13 00:04:27;;;;;;;31.40;6.60;;;12.50;85.50;;;;;;6160265;23;20021;-74
2022/05/13 00:07:00;;;;;;;32.70;6.95;;;12.50;87.00;;;;;;6159697;23;20023;-75
2022/05/13 00:12:13;;;;;;;32.25;6.70;;;12.50;86.40;;;;;;6185102;23;20379;-74
2022/05/13 00:14:39;;;;;;;33.63;5.85;;;12.60;86.00;;;;;;6160031;23;20335;-73
2022/05/13 00:17:10;;;;;;;32.58;7.03;;;12.50;86.20;;;;;;6184553;23;20056;-73
2022/05/13 00:19:47;;;;;;;27.70;5.47;;;12.60;86.00;;;;;;6159571;23;20021;-73
2022/05/13 00:22:14;;;;;;;;;;;12.60;86.50;;;;;;6162498;23;20351;-75
2022/05/13 00:24:40;;;;;;;37.35;5.47;;;12.60;87.00;;;;;;6183796;23;20329;-75
2022/05/13 00:27:06;;;;;;;35.78;5.85;;;12.50;86.50;;;;;;6159325;23;20013;-74
2022/05/13 00:29:34;;;;;;;30.45;6.97;;;12.60;86.20;;;;;;6158923;23;20390;-74
2022/05/13 00:32:13;;;;;;;30.55;5.28;;;12.50;86.60;;;;;;6184036;23;20332;-73
2022/05/13 00:34:55;;;;;;;;;;;12.50;87.60;;;;;;6161739;23;20044;-74
2022/05/13 00:37:23;;;;;;;38.30;6.70;;;12.50;88.10;;;;;;6184628;23;19912;-74
2022/05/13 00:39:55;;;;;;;29.17;5.45;;;12.50;86.60;;;;;;6160175;23;20017;-73
2022/05/13 00:42:27;;;;;;;31.15;6.65;;;12.50;87.50;;;;;;6160480;23;20436;-74
2022/05/13 00:44:59;;;;;;;39.65;7.20;;;12.50;86.40;;;;;;6159463;23;20092;-74
2022/05/13 00:47:31;;;;;;;36.28;7.03;;;12.50;86.60;;;;;;6160527;23;20075;-72
2022/05/13 00:49:59;;;;;;;35.80;7.38;;;12.50;86.70;;;;;;6160731;23;20344;-71
2022/05/13 00:52:31;;;;;;;38.78;6.63;;;12.50;87.30;;;;;;6185569;23;20021;-75
2022/05/13 00:55:11;;;;;;;40.72;8.55;;;12.50;87.00;;;;;;6183604;23;20394;-73
2022/05/13 00:57:40;;;;;;;40.00;7.82;;;12.60;88.10;;;;;;6184498;23;20013;-74
2022/05/13 01:00:13;;;;;;;29.48;6.60;;;12.50;88.00;;;;;;6185310;23;20055;-74
2022/05/13 01:02:44;;;;;;;40.42;7.30;;;12.50;87.40;;;;;;6185958;23;20084;-73
2022/05/13 01:05:15;;;;;;;29.98;6.70;;;12.70;87.20;;;;;;6159559;23;20088;-74
2022/05/13 01:07:50;;;;;;;38.72;7.55;;;12.60;87.40;;;;;;6160134;23;20013;-73
2022/05/13 01:10:28;;;;;;;32.70;6.68;;;12.50;87.20;;;;;;6161771;23;20407;-74
2022/05/13 01:13:06;;;;;;;35.80;7.05;;;12.50;87.50;;;;;;6183849;23;20104;-75
2022/05/13 01:15:41;;;;;;;34.78;7.60;;;12.50;87.50;;;;;;6159630;23;20013;-74
2022/05/13 01:18:24;;;;;;;28.00;5.90;;;12.40;87.40;;;;;;6156481;23;20016;-74
2022/05/13 01:20:53;;;;;;;30.63;6.32;;;12.50;88.50;;;;;;6184005;23;20017;-73
2022/05/13 01:23:34;;;;;;;;;;;;;;;;;;;;;
2022/05/13 01:26:15;;;;;;;26.15;5.90;;;12.50;87.90;;;;;;6183653;23;20041;-73
2022/05/13 01:28:57;;;;;;;38.42;7.78;;;12.50;87.70;;;;;;6159631;23;20019;-75
2022/05/13 01:31:30;;;;;;;32.10;6.40;;;12.40;87.70;;;;;;6160762;23;20047;-75
2022/05/13 01:34:07;;;;;;;29.67;6.72;;;12.40;87.50;;;;;;6159631;23;20088;-73
2022/05/13 01:36:37;;;;;;;26.60;5.93;;;12.40;88.10;;;;;;6184278;23;20072;-73
2022/05/13 01:39:06;;;;;;;32.00;6.90;;;12.40;87.60;;;;;;6159285;23;20340;-74
2022/05/13 01:41:37;;;;;;;31.05;6.78;;;12.40;87.80;;;;;;6159030;23;20017;-74
2022/05/13 01:44:09;;;;;;;30.05;6.78;;;12.40;88.40;;;;;;6186258;23;20013;-73
2022/05/13 01:46:43;;;;;;;28.48;7.78;;;12.40;88.10;;;;;;6162243;23;20112;-74
2022/05/13 01:49:10;;;;;;;30.35;6.20;;;12.40;88.10;;;;;;6159959;23;20073;-75
2022/05/13 01:51:38;;;;;;;41.70;6.28;;;12.40;87.80;;;;;;6187354;23;20021;-74
2022/05/13 01:54:09;;;;;;;31.35;5.82;;;12.30;88.30;;;;;;6185807;23;20402;-74
2022/05/13 01:56:41;;;;;;;31.35;5.80;;;12.40;88.20;;;;;;6136065;23;20092;-73
2022/05/13 01:59:06;;;;;;;33.17;6.32;;;12.30;87.90;;;;;;6160837;23;20017;-74
2022/05/13 02:01:32;;;;;;;33.00;6.65;;;12.30;87.90;;;;;;6185890;23;20020;-74
2022/05/13 02:04:03;;;;;;;29.00;6.55;;;12.30;88.70;;;;;;6186086;23;20343;-74
2022/05/13 02:06:31;;;;;;;36.17;7.63;;;12.30;88.50;;;;;;6186022;23;20091;-74
2022/05/13 02:09:03;;;;;;;27.02;6.30;;;12.30;88.90;;;;;;6160979;23;20021;-75
2022/05/13 02:11:32;;;;;;;27.80;7.10;;;12.40;88.80;;;;;;6160933;23;20024;-74
2022/05/13 02:14:06;;;;;;;35.00;6.82;;;12.30;89.10;;;;;;6136672;23;20017;-74
2022/05/13 02:16:36;;;;;;;35.78;7.00;;;12.30;89.80;;;;;;6186101;23;20021;-75
2022/05/13 02:19:05;;;;;;;36.35;7.28;;;12.20;89.00;;;;;;6185829;23;20017;-74
2022/05/13 02:21:41;;;;;;;34.25;7.78;;;12.20;88.80;;;;;;6185249;23;20071;-72
2022/05/13 02:24:10;;;;;;;31.75;8.15;;;12.10;89.10;;;;;;6187126;23;20017;-71
2022/05/13 02:26:36;;;;;;;37.95;7.97;;;12.20;88.90;;;;;;6162829;23;20017;-72
2022/05/13 02:29:02;;;;;;;30.48;7.70;;;12.20;88.60;;;;;;6185885;23;20106;-75
2022/05/13 02:31:31;;;;;;;29.02;8.07;;;12.10;90.00;;;;;;6185741;23;20017;-75
2022/05/13 02:34:00;;;;;;;30.13;7.95;;;12.20;89.00;;;;;;6185339;23;20020;-75
2022/05/13 02:36:29;;;;;;;34.50;8.10;;;12.30;89.00;;;;;;6185792;23;20017;-75
2022/05/13 02:39:03;;;;;;;31.63;6.70;;;12.20;88.30;;;;;;6185658;23;20463;-74
2022/05/13 02:41:31;;;;;;;30.27;6.80;;;12.30;88.80;;;;;;6137166;23;20017;-74
2022/05/13 02:43:59;;;;;;;28.67;5.93;;;12.50;88.00;;;;;;6136034;23;20013;-75
2022/05/13 02:46:32;;;;;;;34.80;7.07;;;12.80;87.50;;;;;;6161202;23;20020;-74
2022/05/13 02:48:59;;;;;;;32.45;6.05;;;12.30;86.80;;;;;;6160331;23;20017;-74
2022/05/13 02:51:32;;;;;;;26.45;5.68;;;12.30;86.20;;;;;;6185227;23;20039;-74
2022/05/13 02:54:01;;;;;;;25.58;6.28;;;12.40;86.10;;;;;;6160045;23;20052;-75
2022/05/13 02:56:32;;;;;;;29.42;5.70;;;12.40;85.80;;;;;;6184998;23;20044;-74
2022/05/13 02:59:00;;;;;;;29.77;5.72;;;12.40;85.60;;;;;;6160074;23;20017;-75
2022/05/13 03:01:29;;;;;;;28.60;5.70;;;12.40;85.20;;;;;;6160583;23;20435;-74
2022/05/13 03:04:03;;;;;;;23.88;6.05;;;12.40;85.30;;;;;;6184453;23;20075;-74
2022/05/13 03:06:34;;;;;;;24.52;4.70;;;12.30;84.80;;;;;;6137947;23;20036;-74
2022/05/13 03:08:59;;;;;;;26.10;5.13;;;12.40;84.20;;;;;;6184626;23;20021;-75
2022/05/13 03:11:31;;;;;;;25.23;5.10;;;12.40;84.00;;;;;;6185581;23;20013;-74
2022/05/13 03:13:56;;;;;;;23.45;4.57;;;12.50;84.20;;;;;;6160305;23;20413;-74
2022/05/13 03:16:26;;;;;;;22.17;4.38;;;12.40;83.90;;;;;;6185358;23;20076;-74
2022/05/13 03:18:58;;;;;;;23.17;4.28;;;12.50;84.10;;;;;;6160462;23;20009;-74
2022/05/13 03:21:27;;;;;;;17.13;4.53;;;12.40;83.50;;;;;;6185257;23;20335;-75
2022/05/13 03:23:54;;;;;;;21.13;4.78;;;12.40;83.50;;;;;;6160284;23;20092;-75
2022/05/13 03:26:29;;;;;;;22.55;4.97;;;12.50;83.30;;;;;;6161697;23;20075;-74
2022/05/13 03:28:57;;;;;;;17.33;4.18;;;12.50;83.50;;;;;;6160478;23;20436;-76
2022/05/13 03:31:23;;;;;;;15.32;4.28;;;12.40;82.60;;;;;;6185205;23;20020;-74
2022/05/13 03:33:53;;;;;;;19.60;3.97;;;12.40;81.80;;;;;;6184256;23;20368;-75
2022/05/13 03:36:35;;;;;;;19.95;4.25;;;12.40;81.80;;;;;;6185144;23;20348;-75
2022/05/13 03:39:07;;;;;;;17.02;3.53;;;12.50;80.70;;;;;;6161696;23;20443;-74
2022/05/13 03:41:35;;;;;;;13.80;3.60;;;12.50;80.60;;;;;;6184560;23;20017;-75
2022/05/13 03:44:04;;;;;;;19.25;4.15;;;12.50;80.30;;;;;;6160268;23;20048;-75
2022/05/13 03:46:30;;;;;;;15.30;3.70;;;12.50;80.20;;;;;;6184918;23;20017;-76
2022/05/13 03:48:59;;;;;;;13.15;3.13;;;12.60;79.50;;;;;;6160960;23;20092;-73
2022/05/13 03:51:28;;;;;;;12.48;3.35;;;12.40;79.40;;;;;;6162305;23;20028;-73
2022/05/13 03:53:58;;;;;;;16.23;3.70;;;12.50;79.30;;;;;;6185739;23;20028;-73
2022/05/13 03:56:29;;;;;;;9.68;3.25;;;12.50;78.10;;;;;;6159821;23;20463;-74
2022/05/13 03:59:00;;;;;;;11.88;2.55;;;12.50;78.40;;;;;;6160858;23;20328;-75
2022/05/13 04:01:29;;;;;;;11.25;2.90;;;12.70;78.60;;;;;;6184437;23;20013;-74
2022/05/13 04:03:58;;;;;;;10.43;2.92;;;12.80;78.40;;;;;;6184976;23;20021;-74
2022/05/13 04:09:26;;;;;;;13.82;3.15;;;12.50;77.90;;;;;;6184717;23;20083;-73
2022/05/13 04:17:39;;;;;;;16.55;3.03;;;12.50;77.60;;;;;;6186409;23;20023;-74
2022/05/13 04:20:08;;;;;;;13.45;2.85;;;12.50;77.80;;;;;;6135553;23;20009;-74
2022/05/13 04:22:34;;;;;;;13.80;2.80;;;12.50;77.70;;;;;;6184364;23;20357;-75
2022/05/13 04:25:02;;;;;;;8.80;2.53;;;12.50;77.30;;;;;;6158951;23;20091;-75
2022/05/13 04:27:29;;;;;;;10.05;2.70;;;12.50;77.40;;;;;;6185613;23;20463;-75
2022/05/13 04:29:55;;;;;;;;;;;12.50;76.70;;;;;;6184362;23;20017;-75
2022/05/13 04:32:23;;;;;;;12.13;2.65;;;12.40;77.10;;;;;;6159429;23;19912;-75
2022/05/13 04:34:54;;;;;;;8.07;3.03;;;12.50;77.10;;;;;;6159884;23;20009;-75
2022/05/13 04:37:22;;;;;;;13.50;2.83;;;12.50;77.20;;;;;;6184365;23;20071;-76
2022/05/13 04:39:55;;;;;;;13.43;2.88;;;12.50;77.10;;;;;;6159760;23;20059;-74
2022/05/13 04:45:23;;;;;;;16.63;3.08;;;12.50;77.10;;;;;;6184352;23;20083;-74
2022/05/13 04:51:10;;;;;;;9.45;2.50;;;12.50;76.90;;;;;;6177197;23;20048;-76
2022/05/13 04:53:44;;;;;;;12.63;2.65;;;12.50;76.70;;;;;;6159657;23;20020;-74
2022/05/13 04:56:13;;;;;;;8.73;2.47;;;12.60;76.60;;;;;;6159726;23;20124;-74
2022/05/13 04:58:54;;;;;;;9.13;2.60;;;12.60;76.50;;;;;;6159525;23;20020;-76
2022/05/13 05:01:21;;;;;;;7.90;2.72;;;12.60;76.50;;;;;;6184591;23;20013;-75
2022/05/13 05:03:48;;;;;;;10.75;2.42;;;12.70;76.60;;;;;;6159635;23;20017;-75
2022/05/13 05:06:23;;;;;;;14.57;2.92;;;12.70;76.40;;;;;;6159605;23;20067;-76
2022/05/13 05:08:50;;;;;;;9.93;2.90;;;12.70;76.50;;;;;;6159533;23;20390;-75
2022/05/13 05:11:17;;;;;;;10.77;2.42;;;12.70;76.00;;;;;;6159123;23;20067;-75
2022/05/13 05:13:45;;;;;;;10.57;3.03;;;12.70;75.70;;;;;;6184206;23;20013;-76
2022/05/13 05:16:12;;;;;;;9.02;2.58;;;12.70;75.90;;;;;;6183869;23;20009;-76
2022/05/13 05:18:39;;;;;;;6.90;2.40;;;12.70;76.00;;;;;;6159859;23;20047;-73
2022/05/13 05:21:12;;;;;;;9.93;2.75;;;12.70;76.00;;;;;;6186448;23;20025;-73
2022/05/13 05:23:45;;;;;;;10.18;2.95;;;12.70;76.20;;;;;;6185277;23;20032;-74
2022/05/13 05:26:12;;;;;;;14.63;3.33;;;12.70;76.50;;;;;;6183599;23;20104;-76
2022/05/13 05:28:40;;;;;;;;;;;12.80;76.60;;;;;;6184784;23;20020;-75
2022/05/13 05:31:11;;;;;;;17.70;2.85;;;12.80;76.00;;;;;;6184228;23;19917;-74
2022/05/13 05:33:43;;;;;;;12.93;3.35;;;12.90;76.10;;;;;;6184202;23;20045;-75
2022/05/13 05:36:09;;;;;;;13.90;3.05;;;12.80;75.90;;;;;;6158543;23;20444;-75
2022/05/13 05:38:35;;;;;;;10.93;3.38;;;12.80;76.00;;;;;;6183801;23;20013;-74
2022/05/13 05:41:05;;;;;;;12.48;2.53;;;12.90;75.80;;;;;;6154393;23;20365;-74
2022/05/13 05:43:35;;;;;;;14.98;3.22;;;12.80;75.80;;;;;;6129449;23;20018;-74
2022/05/13 05:46:05;;;;;;;15.90;2.35;;;13.00;75.70;;;;;;6154368;23;20014;-74
2022/05/13 05:52:20;;;;;;;15.40;3.05;;;12.90;75.60;;;;;;6022859;23;20063;-75
2022/05/13 05:58:00;;;;;;;12.82;2.38;;;12.90;76.00;;;;;;6155505;23;20064;-74
2022/05/13 06:00:46;;;;;;;6.78;2.22;;;13.00;75.40;;;;;;6154127;23;20025;-76
2022/05/13 06:03:12;;;;;;;10.73;2.35;;;13.00;75.50;;;;;;6154066;23;20013;-74
2022/05/13 06:05:43;;;;;;;;;;;13.10;75.40;;;;;;6129883;23;20053;-75
2022/05/13 06:08:29;;;;;;;10.52;2.83;;;13.10;75.60;;;;;;6155685;23;19992;-74
2022/05/13 06:11:09;;;;;;;16.05;2.30;;;13.10;75.40;;;;;;6176917;23;20097;-74
2022/05/13 06:13:43;;;;;;;9.30;2.10;;;13.10;75.20;;;;;;6154050;23;20076;-74
2022/05/13 06:16:14;;;;;;;8.23;2.40;;;13.10;75.30;;;;;;6152115;23;20028;-75
2022/05/13 06:18:49;;;;;;;10.38;2.55;;;13.10;75.00;;;;;;6130773;23;20088;-75
2022/05/13 06:21:17;;;;;;;10.70;2.17;;;13.20;75.10;;;;;;6129483;23;20529;-74
2022/05/13 06:23:43;;;;;;;14.52;2.75;;;13.20;75.10;;;;;;6154382;23;20009;-76
2022/05/13 06:26:10;;;;;;;11.02;2.35;;;13.40;74.90;;;;;;6154023;23;20104;-75
2022/05/13 06:28:41;;;;;;;9.65;2.03;;;13.30;74.80;;;;;;6129336;23;20021;-74
2022/05/13 06:31:18;;;;;;;7.78;2.45;;;13.40;74.90;;;;;;6155504;23;20013;-75
2022/05/13 06:33:46;;;;;;;9.35;2.28;;;13.40;74.70;;;;;;6156553;23;20026;-75
2022/05/13 06:36:24;;;;;;;13.40;2.20;;;13.50;74.80;;;;;;6131501;23;20071;-74
2022/05/13 06:39:08;;;;;;;;;;;;;;;;;;;;;
2022/05/13 06:45:32;;;;;;;8.95;2.15;;;13.70;74.40;;;;;;6124578;23;19967;-75
2022/05/13 06:48:52;;;;;;;8.75;1.90;;;13.80;73.90;;;;;;6047950;23;20045;-75
2022/05/13 06:51:52;;;;;;;12.82;3.30;;;13.80;73.50;;;;;;6057503;23;20114;-73
2022/05/13 06:54:18;;;;;;;11.38;2.33;;;13.90;73.40;;;;;;6037325;23;20014;-75
2022/05/13 06:57:04;;;;;;;13.27;2.78;;;14.00;73.70;;;;;;6071639;23;20402;-74
2022/05/13 06:59:34;;;;;;;10.38;2.30;;;14.10;73.60;;;;;;6071362;23;20062;-74
2022/05/13 07:02:00;;;;;;;7.80;2.03;;;14.10;73.00;;;;;;6071419;23;20465;-74
2022/05/13 07:04:35;;;;;;;10.70;2.20;;;14.00;72.60;;;;;;6047723;23;20015;-75
2022/05/13 07:07:09;;;;;;;12.90;3.25;;;14.10;73.00;;;;;;6071434;23;20018;-74
2022/05/13 07:09:36;;;;;;;10.80;2.55;;;14.30;73.00;;;;;;6070087;23;20069;-74
2022/05/13 07:12:09;;;;;;;7.13;2.45;;;14.60;72.20;;;;;;6071189;23;20024;-78
2022/05/13 07:14:38;;;;;;;10.00;2.05;;;15.00;71.30;;;;;;6071415;23;20475;-74
2022/05/13 07:17:05;;;;;;;8.98;2.00;;;15.20;70.30;;;;;;6024616;23;20014;-75
2022/05/13 07:19:31;;;;;;;11.93;2.50;;;15.30;70.40;;;;;;6124107;23;20013;-74
2022/05/13 07:21:57;;;;;;;11.50;2.15;;;15.30;70.00;;;;;;6155499;23;20013;-77
2022/05/13 07:24:23;;;;;;;11.30;2.75;;;15.20;70.20;;;;;;6155548;23;20045;-76
2022/05/13 07:27:13;;;;;;;12.30;2.05;;;15.00;69.90;;;;;;6155347;23;20020;-81
2022/05/13 07:29:47;;;;;;;13.27;2.63;;;15.20;69.90;;;;;;6155657;23;20021;-74
2022/05/13 07:32:13;;;;;;;9.27;2.33;;;15.30;70.10;;;;;;6130622;23;20437;-73
2022/05/13 07:34:44;;;;;;;12.88;2.22;;;15.50;69.50;;;;;;6155678;23;20085;-73
2022/05/13 07:37:20;;;;;;;14.63;2.60;;;15.70;70.40;;;;;;6178353;23;20020;-76
2022/05/13 07:43:48;;;;;;;12.15;2.40;;;15.30;67.70;;;;;;6056523;23;20453;-78
2022/05/13 07:46:14;;;;;;;12.45;2.85;;;15.30;68.80;;;;;;6100450;23;20025;-77
2022/05/13 07:52:16;;;;;;;8.77;2.33;;;15.50;68.30;;;;;;6137594;23;20017;-72
2022/05/13 07:55:10;;;;;;;14.45;2.90;;;15.40;69.00;;;;;;6153463;23;20072;-73
2022/05/13 07:58:11;;;;;;;7.65;2.15;;;15.60;68.10;;;;;;6132414;23;20017;-75
2022/05/13 08:00:38;;;;;;;10.52;1.90;;;15.60;67.50;;;;;;6130522;23;20384;-74
2022/05/13 08:57:21;;;;;;;;;;;;;;;;;;;;;
2022/05/13 09:04:31;;;;;;;10.30;2.00;;;17.90;60.60;;;;;;6109859;23;20020;-76
2022/05/13 09:11:53;;;;;;;8.70;2.17;;;18.00;61.10;;;;;;6112737;23;20080;-74
2022/05/13 09:14:44;;;;;;;10.48;2.25;;;18.00;61.00;;;;;;6129810;23;20018;-75
2022/05/13 09:17:50;;;;;;;8.82;2.47;;;17.90;61.10;;;;;;6130002;23;20013;-77
2022/05/13 09:42:57;;;;;;;14.57;2.17;;;17.90;61.20;;;;;;6008658;23;20027;-76
2022/05/13 09:49:33;;;;;;;11.50;2.40;;;17.70;60.50;;;;;;5964539;24;20054;-75
2022/05/13 09:52:25;;;;;;;13.27;2.90;;;17.90;60.40;;;;;;5981700;23;20072;-77
2022/05/13 09:54:52;;;;;;;9.07;2.42;;;18.00;60.40;;;;;;6069375;23;20453;-78
2022/05/13 09:57:21;;;;;;;9.13;2.40;;;18.00;59.70;;;;;;6050736;23;20064;-80
2022/05/13 10:00:09;;;;;;;10.48;2.17;;;18.10;60.10;;;;;;6099025;23;20043;-79
2022/05/13 10:02:41;;;;;;;12.85;2.33;;;18.20;59.00;;;;;;6099374;23;20328;-79
2022/05/13 10:08:49;;;;;;;8.13;1.70;;;18.40;58.80;;;;;;6100924;23;20068;-74
2022/05/13 10:18:05;;;;;;;13.02;2.35;;;18.60;57.40;;;;;;6128049;23;20393;-76
2022/05/13 10:20:43;;;;;;;14.23;2.85;;;18.30;58.90;;;;;;6099874;23;20441;-76
2022/05/13 10:23:49;;;;;;;11.73;2.47;;;18.00;58.90;;;;;;6101845;23;20065;-77
2022/05/13 10:26:56;;;;;;;20.40;3.70;;;18.00;59.80;;;;;;6101657;23;20025;-75
2022/05/13 10:29:46;;;;;;;9.60;2.50;;;18.20;59.60;;;;;;5981957;24;20012;-76
2022/05/13 10:49:03;;;;;;;14.50;2.50;;;18.90;57.80;;;;;;5783830;24;20069;-78
2022/05/13 10:52:22;;;;;;;10.93;2.20;;;19.20;56.50;;;;;;6010080;23;20025;-77
2022/05/13 10:54:49;;;;;;;11.45;2.70;;;19.30;57.20;;;;;;6103005;23;20065;-80
2022/05/13 10:57:27;;;;;;;9.05;2.50;;;19.40;57.20;;;;;;6102430;23;20025;-75
2022/05/13 11:00:09;;;;;;;8.35;2.17;;;19.60;55.40;;;;;;6102035;23;20018;-74
2022/05/13 11:02:53;;;;;;;15.70;3.08;;;19.70;56.00;;;;;;6101779;23;20101;-75
2022/05/13 11:05:35;;;;;;;11.93;2.33;;;19.70;56.20;;;;;;6077693;23;20014;-73
2022/05/13 11:08:16;;;;;;;11.73;2.67;;;19.30;56.60;;;;;;6127873;23;20014;-73
2022/05/13 11:10:48;;;;;;;9.02;2.78;;;19.20;57.10;;;;;;6077788;23;20091;-76
2022/05/13 11:13:26;;;;;;;14.90;2.80;;;19.10;57.90;;;;;;6102196;23;20388;-73
2022/05/13 11:16:02;;;;;;;11.13;2.65;;;18.90;57.70;;;;;;6101566;23;20014;-71
2022/05/13 11:18:59;;;;;;;13.10;2.85;;;18.70;58.10;;;;;;6101672;23;20318;-71
2022/05/13 11:21:50;;;;;;;17.38;2.75;;;18.70;60.00;;;;;;6087337;23;20022;-70
2022/05/13 11:27:36;;;;;;;13.20;2.92;;;18.30;60.60;;;;;;6101711;23;20109;-80
2022/05/13 11:30:29;;;;;;;12.38;2.70;;;18.10;61.60;;;;;;6078347;23;20073;-80
2022/05/13 11:33:14;;;;;;;9.63;2.35;;;17.90;61.80;;;;;;6083035;23;20018;-79
2022/05/13 11:36:00;;;;;;;15.88;3.00;;;17.80;61.80;;;;;;6101963;23;20338;-80
2022/05/13 11:38:39;;;;;;;15.05;3.00;;;18.20;61.50;;;;;;6101475;23;20057;-80
2022/05/13 11:41:11;;;;;;;13.45;2.65;;;18.30;61.00;;;;;;6077395;23;20018;-79
2022/05/13 11:44:05;;;;;;;11.65;2.42;;;18.40;60.50;;;;;;6100677;23;20014;-80
2022/05/13 11:46:59;;;;;;;11.88;2.58;;;18.50;60.80;;;;;;6077303;23;20413;-80
2022/05/13 11:49:29;;;;;;;13.98;2.95;;;18.50;60.10;;;;;;6078379;23;20037;-80
2022/05/13 11:52:16;;;;;;;20.27;3.20;;;18.60;59.40;;;;;;6077839;23;20498;-79
2022/05/13 11:54:45;;;;;;;18.27;3.13;;;18.70;59.70;;;;;;6102464;23;20014;-83
2022/05/13 11:57:24;;;;;;;12.60;2.67;;;18.60;59.70;;;;;;6065120;23;20093;-81
2022/05/13 12:00:18;;;;;;;13.70;2.75;;;18.50;59.70;;;;;;6080734;23;20026;-82
2022/05/13 12:03:03;;;;;;;12.75;2.58;;;18.70;59.20;;;;;;6079032;23;20056;-80
2022/05/13 12:05:32;;;;;;;13.35;2.50;;;19.00;59.80;;;;;;6079581;23;20345;-81
2022/05/13 12:08:02;;;;;;;13.32;3.33;;;19.40;58.50;;;;;;6078562;23;20056;-78
2022/05/13 12:10:47;;;;;;;15.20;3.25;;;19.70;58.90;;;;;;6101292;23;20014;-80
2022/05/13 12:13:30;;;;;;;16.77;2.80;;;19.90;56.80;;;;;;6102684;23;20515;-82
2022/05/13 12:16:35;;;;;;;18.83;2.70;;;19.60;55.80;;;;;;6103061;23;20337;-83
2022/05/13 12:19:47;;;;;;;11.38;2.83;;;19.30;54.90;;;;;;6078953;23;20010;-83
2022/05/13 12:22:46;;;;;;;16.73;3.28;;;19.20;56.60;;;;;;6077000;23;20014;-80
2022/05/13 12:25:35;;;;;;;16.15;2.70;;;19.00;56.20;;;;;;6101915;23;20014;-82
2022/05/13 12:28:15;;;;;;;11.40;2.47;;;18.90;56.70;;;;;;6098903;23;20010;-72
2022/05/13 12:31:11;;;;;;;16.85;3.25;;;18.90;57.10;;;;;;6099274;23;20029;-79
2022/05/13 12:33:46;;;;;;;15.65;2.88;;;19.30;58.40;;;;;;6124489;23;20017;-75
2022/05/13 12:39:52;;;;;;;24.48;3.83;;;19.40;57.00;;;;;;6088604;23;20022;-79
2022/05/13 12:42:47;;;;;;;13.13;2.80;;;19.10;56.90;;;;;;6099518;23;20105;-77
2022/05/13 12:45:18;;;;;;;18.95;2.63;;;18.80;56.10;;;;;;6044816;23;20345;-78
2022/05/13 12:48:11;;;;;;;11.82;2.72;;;18.60;56.60;;;;;;6112151;23;20089;-75
2022/05/13 12:53:30;;;;;;;12.88;3.10;;;18.20;57.10;;;;;;6111212;23;20010;-74
2022/05/13 12:56:00;;;;;;;11.82;2.67;;;18.20;57.10;;;;;;6106596;23;20020;-81
2022/05/13 12:58:29;;;;;;;10.02;2.20;;;18.10;57.80;;;;;;6127568;23;20013;-76
2022/05/13 13:00:57;;;;;;;13.18;2.50;;;18.30;58.00;;;;;;6104378;23;20013;-78
2022/05/13 13:03:24;;;;;;;14.40;3.05;;;18.50;58.70;;;;;;6128589;23;20009;-79
2022/05/13 13:06:00;;;;;;;13.23;2.75;;;18.70;58.80;;;;;;6103875;23;20014;-76
2022/05/13 13:08:37;;;;;;;10.88;3.10;;;18.90;58.50;;;;;;6128264;23;20013;-70
2022/05/13 13:11:53;;;;;;;16.42;3.10;;;19.00;57.50;;;;;;6128571;23;20090;-74
2022/05/13 13:15:00;;;;;;;12.77;2.03;;;19.20;57.80;;;;;;6103764;23;20021;-80
2022/05/13 13:17:35;;;;;;;14.63;3.15;;;19.50;55.20;;;;;;6121543;23;20020;-80
2022/05/13 13:20:04;;;;;;;14.20;3.00;;;19.40;55.70;;;;;;6128793;23;20502;-79
2022/05/13 13:22:38;;;;;;;15.90;3.00;;;19.40;55.10;;;;;;6104333;23;20010;-81
2022/05/13 13:25:27;;;;;;;11.65;3.08;;;19.60;54.70;;;;;;6103416;23;20437;-78
2022/05/13 13:28:03;;;;;;;13.90;3.67;;;19.70;54.70;;;;;;6088940;23;20013;-80
2022/05/13 13:30:31;;;;;;;16.10;3.88;;;19.70;54.20;;;;;;6128321;23;20066;-78
2022/05/13 13:32:57;;;;;;;14.45;2.67;;;19.70;55.10;;;;;;6128842;23;20072;-80
2022/05/13 13:35:39;;;;;;;16.35;2.90;;;19.70;55.70;;;;;;6128542;23;20408;-80
2022/05/13 13:38:09;;;;;;;9.45;2.30;;;19.90;54.80;;;;;;6104305;23;20025;-77
2022/05/13 13:40:43;;;;;;;13.93;2.65;;;20.00;55.00;;;;;;6128087;23;20022;-78
2022/05/13 13:43:13;;;;;;;16.20;2.63;;;20.10;53.50;;;;;;6103962;23;20097;-81
2022/05/13 13:45:42;;;;;;;14.80;3.05;;;20.20;54.20;;;;;;6129523;23;20018;-80
2022/05/13 13:48:11;;;;;;;14.25;2.80;;;20.30;51.80;;;;;;6105255;23;20009;-79
2022/05/13 13:50:45;;;;;;;13.27;2.60;;;20.30;52.40;;;;;;6129492;23;20014;-76
2022/05/13 13:53:12;;;;;;;17.45;3.15;;;20.20;50.30;;;;;;6129577;23;20344;-77
2022/05/13 13:55:39;;;;;;;14.65;2.72;;;19.90;51.60;;;;;;6105129;23;20018;-77
2022/05/13 13:58:31;;;;;;;15.32;2.78;;;20.00;53.10;;;;;;6128981;23;20511;-80
2022/05/13 14:01:14;;;;;;;22.38;3.60;;;20.00;51.60;;;;;;6105549;23;20021;-80
2022/05/13 14:03:40;;;;;;;21.13;2.92;;;20.20;53.40;;;;;;6129852;23;20060;-80
2022/05/13 14:06:10;;;;;;;16.08;2.75;;;20.20;53.40;;;;;;6105310;23;20021;-75
2022/05/13 14:08:39;;;;;;;10.18;2.40;;;19.80;51.80;;;;;;6129625;23;20080;-81
2022/05/13 14:11:16;;;;;;;13.23;2.90;;;19.70;52.20;;;;;;6107062;23;20021;-77
2022/05/13 14:14:06;;;;;;;10.75;2.80;;;19.80;53.40;;;;;;6129308;23;20017;-75
2022/05/13 14:16:35;;;;;;;15.90;2.97;;;19.80;52.40;;;;;;6104781;23;20321;-78
2022/05/13 14:19:16;;;;;;;11.68;2.70;;;19.70;53.20;;;;;;6129267;23;20468;-79
2022/05/13 14:22:03;;;;;;;13.63;2.60;;;19.60;52.70;;;;;;6138873;23;20017;-78
2022/05/13 14:24:39;;;;;;;13.13;2.40;;;19.60;53.20;;;;;;6117563;23;20016;-79
2022/05/13 14:27:31;;;;;;;9.93;2.33;;;19.70;52.60;;;;;;6117283;23;20077;-73
2022/05/13 14:30:12;;;;;;;13.30;2.80;;;19.80;52.70;;;;;;6121086;23;20014;-81
2022/05/13 14:32:42;;;;;;;15.43;2.78;;;20.00;52.70;;;;;;6130734;23;20013;-75
2022/05/13 14:35:19;;;;;;;16.33;3.10;;;19.90;53.00;;;;;;6130323;23;20094;-74
2022/05/13 14:39:48;;;;;;;14.45;2.75;;;19.90;52.10;;;;;;6128531;23;20028;-79
2022/05/13 14:41:57;;;;;;;10.30;2.40;;;20.00;52.40;;;;;;6127029;23;20024;-82
2022/05/13 14:48:47;;;;;;;13.10;2.72;;;20.60;52.30;;;;;;6063535;23;20516;-81
2022/05/13 14:51:49;;;;;;;12.90;3.00;;;20.60;51.20;;;;;;6064989;23;20394;-77
2022/05/13 14:54:15;;;;;;;13.02;3.00;;;20.60;51.30;;;;;;6017920;23;20014;-76
2022/05/13 14:56:51;;;;;;;;;;;20.30;52.30;;;;;;6042018;23;20332;-82
2022/05/13 14:59:46;;;;;;;11.90;2.85;;;19.90;52.80;;;;;;6073634;23;19916;-74
2022/05/13 15:02:17;;;;;;;9.63;2.20;;;19.90;52.00;;;;;;6129758;23;20336;-78
2022/05/13 15:13:08;;;;;;;12.02;2.80;;;20.70;52.10;;;;;;6036721;23;20025;-78
2022/05/13 15:16:00;;;;;;;13.75;3.08;;;20.90;51.30;;;;;;6053347;23;20013;-75
2022/05/13 15:18:32;;;;;;;13.63;2.92;;;20.70;51.30;;;;;;6105821;23;20017;-76
2022/05/13 15:20:59;;;;;;;10.05;2.85;;;20.50;51.10;;;;;;6130699;23;20044;-72
2022/05/13 15:23:28;;;;;;;18.13;3.10;;;20.50;51.10;;;;;;6130481;23;20022;-74
2022/05/13 15:25:55;;;;;;;15.80;2.97;;;20.50;51.20;;;;;;6105302;23;20306;-76
2022/05/13 15:28:21;;;;;;;14.80;2.90;;;20.30;50.50;;;;;;6130766;23;20072;-75
2022/05/13 15:30:49;;;;;;;12.27;2.70;;;20.50;51.40;;;;;;6130555;23;20021;-77
2022/05/13 15:59:40;;;;;;;16.10;3.08;;;21.20;49.40;;;;;;6237965;23;20020;-76
2022/05/13 16:09:28;;;;;;;19.02;3.20;;;21.00;49.10;;;;;;5925467;24;20025;-72
2022/05/13 16:12:11;;;;;;;;;;;21.20;50.20;;;;;;6032048;23;20026;-84
2022/05/13 16:14:39;;;;;;;14.10;2.95;;;21.00;49.90;;;;;;6042286;23;19984;-81
2022/05/13 16:17:09;;;;;;;15.82;2.92;;;21.00;50.20;;;;;;6140972;23;20012;-74
2022/05/13 16:19:35;;;;;;;16.00;3.28;;;21.00;50.30;;;;;;6219617;23;20311;-76
2022/05/13 16:22:03;;;;;;;;;;;21.20;49.70;;;;;;6170503;23;20102;-76
2022/05/13 16:24:32;;;;;;;13.93;2.70;;;21.00;49.20;;;;;;6220001;23;19922;-76
2022/05/13 16:26:58;;;;;;;14.05;3.15;;;20.60;50.50;;;;;;6218057;23;20016;-80
2022/05/13 16:29:24;;;;;;;15.77;3.33;;;19.90;51.80;;;;;;6193517;23;20027;-75
2022/05/13 16:31:50;;;;;;;;;;;19.60;53.20;;;;;;6193527;23;20020;-75
2022/05/13 16:34:21;;;;;;;20.92;3.67;;;19.50;54.00;;;;;;6218841;23;19922;-79
2022/05/13 16:39:34;;;;;;;13.20;2.85;;;19.50;54.40;;;;;;6218576;23;20035;-77
2022/05/13 17:01:02;;;;;;;17.58;3.78;;;17.70;60.80;;;;;;6131244;23;20053;-75
2022/05/13 17:06:54;;;;;;;14.82;3.67;;;17.40;61.70;;;;;;6178490;22;20067;-75
2022/05/13 17:19:31;;;;;;;16.67;4.32;;;17.10;63.00;;;;;;6184909;23;20059;-79
2022/05/13 17:21:58;;;;;;;17.73;3.95;;;16.90;63.20;;;;;;6159124;23;20052;-74
2022/05/13 17:24:31;;;;;;;17.17;4.28;;;16.80;63.50;;;;;;6184270;23;20025;-79
2022/05/13 17:27:04;;;;;;;16.50;4.70;;;16.70;64.20;;;;;;6159328;23;20443;-72